createdAt,value
2022-11-04T00:01:23.870Z,81.14
2022-11-04T00:03:51.960Z,81.38
2022-11-04T00:06:20.097Z,80.28
2022-11-04T00:08:50.315Z,80.89
2022-11-04T00:11:35.942Z,80.18
2022-11-04T00:14:04.283Z,80.86
2022-11-04T00:16:50.771Z,80.70
2022-11-04T00:19:18.735Z,80.77
2022-11-04T00:22:03.782Z,80.95
2022-11-04T00:24:54.206Z,80.69
2022-11-04T00:27:40.048Z,80.85
2022-11-04T00:30:10.616Z,80.98
2022-11-04T00:32:57.462Z,81.49
2022-11-04T00:35:25.127Z,81.33
2022-11-04T00:37:53.078Z,81.36
2022-11-04T00:40:20.857Z,81.52
2022-11-04T00:42:48.574Z,81.19
2022-11-04T00:45:16.336Z,81.34
2022-11-04T00:47:45.340Z,81.79
2022-11-04T00:50:12.964Z,81.66
2022-11-04T00:52:40.650Z,82.58
2022-11-04T00:55:09.173Z,82.68
2022-11-04T00:57:36.807Z,82.68
2022-11-04T01:00:05.276Z,82.54
2022-11-04T01:02:33.129Z,82.62
2022-11-04T01:05:02.270Z,82.35
2022-11-04T01:07:29.895Z,82.54
2022-11-04T01:09:57.546Z,82.14
2022-11-04T01:12:25.245Z,82.29
2022-11-04T01:14:53.399Z,83.17
2022-11-04T01:17:21.634Z,83.07
2022-11-04T01:19:49.300Z,83.20
2022-11-04T01:22:18.340Z,82.92
2022-11-04T01:24:46.060Z,82.62
2022-11-04T01:27:13.639Z,82.81
2022-11-04T01:29:41.272Z,83.18
2022-11-04T01:32:09.098Z,83.64
2022-11-04T01:34:42.337Z,83.83
2022-11-04T01:37:11.515Z,83.31
2022-11-04T01:39:40.585Z,83.87
2022-11-04T01:42:08.780Z,83.88
2022-11-04T01:44:51.621Z,83.49
2022-11-04T01:47:21.396Z,83.69
2022-11-04T01:49:52.238Z,83.79
2022-11-04T01:52:23.771Z,83.25
2022-11-04T01:54:53.736Z,83.44
2022-11-04T01:57:25.773Z,83.55
2022-11-04T01:59:53.797Z,82.86
2022-11-04T02:02:21.595Z,83.10
2022-11-04T02:04:49.807Z,82.41
2022-11-04T02:07:17.676Z,82.33
2022-11-04T02:09:45.563Z,81.84
2022-11-04T02:12:32.738Z,82.27
2022-11-04T02:15:00.510Z,81.98
2022-11-04T02:17:39.763Z,81.78
2022-11-04T02:20:28.983Z,82.32
2022-11-04T02:23:17.661Z,82.67
2022-11-04T02:26:03.616Z,82.44
2022-11-04T02:28:47.255Z,81.24
2022-11-04T02:31:20.128Z,81.86
2022-11-04T02:33:50.488Z,81.76
2022-11-04T02:36:23.720Z,81.52
2022-11-04T02:38:54.447Z,80.98
2022-11-04T02:41:28.089Z,81.29
2022-11-04T02:44:04.647Z,81.82
2022-11-04T02:46:36.731Z,80.98
2022-11-04T02:49:09.156Z,80.92
2022-11-04T02:51:39.709Z,81.06
2022-11-04T02:54:09.704Z,80.70
2022-11-04T02:56:38.971Z,80.65
2022-11-04T02:59:09.829Z,81.22
2022-11-04T03:01:42.989Z,81.10
2022-11-04T03:04:15.754Z,80.85
2022-11-04T03:06:44.843Z,80.89
2022-11-04T03:09:14.510Z,80.40
2022-11-04T03:11:45.313Z,80.86
2022-11-04T03:14:16.329Z,81.20
2022-11-04T03:16:48.060Z,81.06
2022-11-04T03:19:18.080Z,80.30
2022-11-04T03:21:50.140Z,80.88
2022-11-04T03:24:18.026Z,80.72
2022-11-04T03:26:48.465Z,80.35
2022-11-04T03:29:23.247Z,80.23
2022-11-04T03:32:00.289Z,80.20
2022-11-04T03:34:28.521Z,80.95
2022-11-04T03:36:56.120Z,80.67
2022-11-04T03:39:23.869Z,81.07
2022-11-04T03:41:55.120Z,80.80
2022-11-04T03:44:23.236Z,80.30
2022-11-04T03:46:52.941Z,80.99
2022-11-04T03:49:22.503Z,80.64
2022-11-04T03:51:50.174Z,80.59
2022-11-04T03:54:18.469Z,80.10
2022-11-04T03:57:11.658Z,80.33
2022-11-04T03:59:58.088Z,80.16
2022-11-04T04:02:34.635Z,80.02
2022-11-04T04:05:04.876Z,80.18
2022-11-04T04:07:35.341Z,79.98
2022-11-04T04:10:29.027Z,79.93
2022-11-04T04:12:59.664Z,80.06
2022-11-04T04:15:30.964Z,80.14
2022-11-04T04:18:04.503Z,80.49
2022-11-04T04:20:35.700Z,80.73
2022-11-04T04:23:26.523Z,80.33
2022-11-04T04:26:12.380Z,80.78
2022-11-04T04:28:40.494Z,80.48
2022-11-04T04:31:08.812Z,80.35
2022-11-04T04:33:38.464Z,80.28
2022-11-04T04:36:07.787Z,80.51
2022-11-04T04:38:53.893Z,80.99
2022-11-04T04:41:40.511Z,80.40
2022-11-04T04:44:32.714Z,80.59
2022-11-04T04:47:02.457Z,80.41
2022-11-04T04:49:35.261Z,79.78
2022-11-04T04:52:04.391Z,80.21
2022-11-04T04:54:32.330Z,80.03
2022-11-04T04:56:59.980Z,79.75
2022-11-04T04:59:27.651Z,80.34
2022-11-04T05:01:55.443Z,79.65
2022-11-04T05:04:25.853Z,79.86
2022-11-04T05:06:54.966Z,79.53
2022-11-04T05:09:22.757Z,79.89
2022-11-04T05:11:50.429Z,80.07
2022-11-04T05:14:18.128Z,79.59
2022-11-04T05:16:46.137Z,79.88
2022-11-04T05:19:13.784Z,79.86
2022-11-04T05:21:41.422Z,80.08
2022-11-04T05:24:11.302Z,79.72
2022-11-04T05:26:39.062Z,79.77
2022-11-04T05:29:06.928Z,79.81
2022-11-04T05:31:34.751Z,80.17
2022-11-04T05:34:02.421Z,79.61
2022-11-04T05:36:30.157Z,79.99
2022-11-04T05:38:57.789Z,79.84
2022-11-04T05:41:26.844Z,79.75
2022-11-04T05:43:54.925Z,79.36
2022-11-04T05:46:23.016Z,79.80
2022-11-04T05:48:50.808Z,78.99
2022-11-04T05:51:20.717Z,79.42
2022-11-04T05:53:48.502Z,79.55
2022-11-04T05:56:16.160Z,79.63
2022-11-04T05:58:45.387Z,79.15
2022-11-04T06:01:15.222Z,79.00
2022-11-04T06:03:43.308Z,79.70
2022-11-04T06:06:10.909Z,79.18
2022-11-04T06:08:44.922Z,79.27
2022-11-04T06:11:13.358Z,79.03
2022-11-04T06:13:41.053Z,79.49
2022-11-04T06:16:10.186Z,79.35
2022-11-04T06:18:37.933Z,78.90
2022-11-04T06:21:10.983Z,78.99
2022-11-04T06:23:38.710Z,78.70
2022-11-04T06:26:06.609Z,78.84
2022-11-04T06:28:34.335Z,78.59
2022-11-04T06:31:04.267Z,78.64
2022-11-04T06:33:36.780Z,78.40
2022-11-04T06:36:07.601Z,78.20
2022-11-04T06:38:36.652Z,78.24
2022-11-04T06:43:33.648Z,78.55
2022-11-04T06:46:02.490Z,78.91
2022-11-04T06:48:31.720Z,79.15
2022-11-04T06:51:01.377Z,79.11
2022-11-04T06:53:30.243Z,78.90
2022-11-04T06:56:04.102Z,79.63
2022-11-04T06:58:31.792Z,79.49
2022-11-04T07:00:59.727Z,79.29
2022-11-04T07:03:27.481Z,79.31
2022-11-04T07:05:55.246Z,79.37
2022-11-04T07:08:24.411Z,79.17
2022-11-04T07:10:52.095Z,79.81
2022-11-04T07:13:19.781Z,80.10
2022-11-04T07:15:47.510Z,80.25
2022-11-04T07:18:15.435Z,80.25
2022-11-04T07:20:43.201Z,80.45
2022-11-04T07:23:10.885Z,79.99
2022-11-04T07:25:40.011Z,80.27
2022-11-04T07:28:08.135Z,79.41
2022-11-04T07:30:36.032Z,80.01
2022-11-04T07:33:03.709Z,79.51
2022-11-04T07:35:31.449Z,79.78
2022-11-04T07:37:59.175Z,79.79
2022-11-04T07:40:28.530Z,80.14
2022-11-04T07:42:57.631Z,80.30
2022-11-04T07:45:25.297Z,79.97
2022-11-04T07:47:52.939Z,79.68
2022-11-04T07:50:20.625Z,80.40
2022-11-04T07:52:48.717Z,79.90
2022-11-04T07:55:18.569Z,80.17
2022-11-04T07:57:46.388Z,80.31
2022-11-04T08:00:17.146Z,80.44
2022-11-04T08:02:46.759Z,79.68
2022-11-04T08:05:14.831Z,80.38
2022-11-04T08:07:42.667Z,80.06
2022-11-04T08:10:11.262Z,80.14
2022-11-04T08:12:39.176Z,80.29
2022-11-04T08:15:08.225Z,79.80
2022-11-04T08:17:37.280Z,79.70
2022-11-04T08:20:08.710Z,79.66
2022-11-04T08:22:36.451Z,79.41
2022-11-04T08:25:04.240Z,79.86
2022-11-04T08:27:31.870Z,80.07
2022-11-04T08:29:59.589Z,79.38
2022-11-04T08:32:27.325Z,80.10
2022-11-04T08:34:56.371Z,80.00
2022-11-04T08:37:24.007Z,79.59
2022-11-04T08:39:51.845Z,79.57
2022-11-04T08:42:19.475Z,78.55
2022-11-04T08:44:47.598Z,78.34
2022-11-04T08:47:15.248Z,78.75
2022-11-04T08:49:42.936Z,79.04
2022-11-04T08:52:12.000Z,79.55
2022-11-04T08:54:39.672Z,78.46
2022-11-04T08:57:07.593Z,79.16
2022-11-04T08:59:35.253Z,79.02
2022-11-04T09:02:02.961Z,79.58
2022-11-04T09:04:30.700Z,79.90
2022-11-04T09:06:59.249Z,79.85
2022-11-04T09:09:28.633Z,79.61
2022-11-04T09:11:56.252Z,79.04
2022-11-04T09:14:24.187Z,79.58
2022-11-04T09:16:51.836Z,78.66
2022-11-04T09:19:19.464Z,79.02
2022-11-04T09:21:47.186Z,78.82
2022-11-04T09:24:14.889Z,79.79
2022-11-04T09:26:44.657Z,79.99
2022-11-04T09:29:12.420Z,80.13
2022-11-04T09:31:40.301Z,79.86
2022-11-04T09:34:07.924Z,79.19
2022-11-04T09:36:35.541Z,79.18
2022-11-04T09:39:03.167Z,78.73
2022-11-04T09:41:52.494Z,80.29
2022-11-04T09:44:24.641Z,80.67
2022-11-04T09:46:54.428Z,79.21
2022-11-04T09:49:22.518Z,78.91
2022-11-04T09:51:54.849Z,78.12
2022-11-04T09:54:26.047Z,77.81
2022-11-04T09:56:56.716Z,78.12
2022-11-04T09:59:27.393Z,78.12
2022-11-04T10:02:08.891Z,79.22
2022-11-04T10:04:46.602Z,77.30
2022-11-04T10:07:25.336Z,77.91
2022-11-04T10:10:00.177Z,78.03
2022-11-04T10:12:42.362Z,77.15
2022-11-04T10:15:22.802Z,77.88
2022-11-04T10:17:59.365Z,78.05
2022-11-04T10:20:42.698Z,77.63
2022-11-04T10:23:22.502Z,77.05
2022-11-04T10:25:51.427Z,76.95
2022-11-04T10:28:23.749Z,76.79
2022-11-04T10:30:52.456Z,77.67
2022-11-04T10:33:27.905Z,75.55
2022-11-04T10:35:58.479Z,75.25
2022-11-04T10:38:33.808Z,75.66
2022-11-04T10:41:06.932Z,76.48
2022-11-04T10:43:38.988Z,77.16
2022-11-04T10:46:22.097Z,76.94
2022-11-04T10:48:52.123Z,76.39
2022-11-04T10:51:22.233Z,78.16
2022-11-04T10:53:54.757Z,77.28
2022-11-04T10:56:29.314Z,77.95
2022-11-04T10:59:01.873Z,76.14
2022-11-04T11:01:33.883Z,77.67
2022-11-04T11:04:02.356Z,76.31
2022-11-04T11:06:31.497Z,76.01
2022-11-04T11:09:00.985Z,77.98
2022-11-04T11:11:40.220Z,75.58
2022-11-04T11:14:19.812Z,74.80
2022-11-04T11:16:48.166Z,74.63
2022-11-04T11:19:21.289Z,74.94
2022-11-04T11:21:50.023Z,73.62
2022-11-04T11:24:21.792Z,73.65
2022-11-04T11:26:50.732Z,75.74
2022-11-04T11:29:24.491Z,75.89
2022-11-04T11:31:53.137Z,73.77
2022-11-04T11:34:22.861Z,73.86
2022-11-04T11:36:51.124Z,73.49
2022-11-04T11:39:21.939Z,73.43
2022-11-04T11:41:53.692Z,74.66
2022-11-04T11:44:28.646Z,73.34
2022-11-04T11:46:57.985Z,74.64
2022-11-04T11:49:28.977Z,73.78
2022-11-04T11:51:57.150Z,74.14
2022-11-04T11:54:33.331Z,73.42
2022-11-04T11:57:14.243Z,74.76
2022-11-04T12:02:41.609Z,71.17
2022-11-04T12:10:55.933Z,70.53
2022-11-04T12:13:28.204Z,70.20
2022-11-04T12:16:10.512Z,71.31
2022-11-04T12:18:52.753Z,71.04
2022-11-04T12:21:33.324Z,71.59
2022-11-04T12:24:06.898Z,71.38
2022-11-04T12:26:38.272Z,71.67
2022-11-04T12:29:27.630Z,71.77
2022-11-04T12:32:04.472Z,72.14
2022-11-04T12:34:43.860Z,72.71
2022-11-04T12:37:19.680Z,72.28
2022-11-04T12:39:57.378Z,71.44
2022-11-04T12:42:32.841Z,72.56
2022-11-04T12:45:12.713Z,71.93
2022-11-04T12:47:44.481Z,71.65
2022-11-04T12:50:34.224Z,71.70
2022-11-04T12:53:18.222Z,72.36
2022-11-04T12:55:51.046Z,72.30
2022-11-04T12:58:39.885Z,71.55
2022-11-04T13:02:16.963Z,72.37
2022-11-04T13:04:49.852Z,71.23
2022-11-04T13:07:21.957Z,71.24
2022-11-04T13:09:54.096Z,70.95
2022-11-04T13:12:23.766Z,71.33
2022-11-04T13:15:15.404Z,71.31
2022-11-04T13:17:44.835Z,70.94
2022-11-04T13:20:19.502Z,70.24
2022-11-04T13:22:49.336Z,70.72
2022-11-04T13:25:20.677Z,70.47
2022-11-04T13:27:49.520Z,70.82
2022-11-04T13:30:23.106Z,70.80
2022-11-04T13:32:55.639Z,70.88
2022-11-04T13:35:30.160Z,70.22
2022-11-04T13:38:01.207Z,70.27
2022-11-04T13:40:32.929Z,70.02
2022-11-04T13:43:36.402Z,69.85
2022-11-04T13:46:08.401Z,70.07
2022-11-04T13:48:38.067Z,70.38
2022-11-04T13:51:08.323Z,69.97
2022-11-04T13:53:44.413Z,70.51
2022-11-04T13:56:34.641Z,70.08
2022-11-04T13:59:07.546Z,70.54
2022-11-04T14:01:36.720Z,70.71
2022-11-04T14:04:30.069Z,71.28
2022-11-04T14:10:03.480Z,71.78
2022-11-04T14:12:35.424Z,71.96
2022-11-04T14:15:12.075Z,71.93
2022-11-04T14:17:59.337Z,71.71
2022-11-04T14:20:31.274Z,71.65
2022-11-04T14:23:00.124Z,71.47
2022-11-04T14:25:32.032Z,71.99
2022-11-04T14:28:01.633Z,72.15
2022-11-04T14:32:02.375Z,72.38
2022-11-04T14:34:32.178Z,72.62
2022-11-04T14:37:00.961Z,72.72
2022-11-04T14:39:31.209Z,72.66
2022-11-04T14:42:01.687Z,73.00
2022-11-04T14:44:35.529Z,72.57
2022-11-04T14:47:18.495Z,73.14
2022-11-04T14:49:48.239Z,72.98
2022-11-04T14:52:21.575Z,72.71
2022-11-04T14:54:49.396Z,72.64
2022-11-04T14:57:18.532Z,72.82
2022-11-04T14:59:46.628Z,72.55
2022-11-04T15:02:18.463Z,72.78
2022-11-04T15:04:53.383Z,73.31
2022-11-04T15:07:27.024Z,72.75
2022-11-04T15:09:54.635Z,72.74
2022-11-04T15:12:40.022Z,72.92
2022-11-04T15:15:40.073Z,73.11
2022-11-04T15:18:10.250Z,73.23
2022-11-04T15:20:42.054Z,73.15
2022-11-04T15:23:15.000Z,73.34
2022-11-04T15:25:50.254Z,73.69
2022-11-04T15:28:23.277Z,74.07
2022-11-04T15:31:06.529Z,74.06
2022-11-04T15:33:39.653Z,73.93
2022-11-04T15:36:18.838Z,74.03
2022-11-04T15:38:48.524Z,74.29
2022-11-04T15:41:38.328Z,74.15
2022-11-04T15:44:08.127Z,74.65
2022-11-04T15:46:35.777Z,74.59
2022-11-04T15:49:06.624Z,74.73
2022-11-04T15:51:39.139Z,74.85
2022-11-04T15:54:09.013Z,75.43
2022-11-04T15:56:41.118Z,75.48
2022-11-04T15:59:10.495Z,75.49
2022-11-04T16:01:46.042Z,76.09
2022-11-04T16:04:16.443Z,75.58
2022-11-04T16:06:47.918Z,75.80
2022-11-04T16:09:23.559Z,75.48
2022-11-04T16:12:10.738Z,74.91
2022-11-04T16:14:38.419Z,74.87
2022-11-04T16:17:06.029Z,74.99
2022-11-04T16:19:35.138Z,74.62
2022-11-04T16:22:04.657Z,74.59
2022-11-04T16:24:33.531Z,74.34
2022-11-04T16:27:01.622Z,74.25
2022-11-04T16:29:31.136Z,74.12
2022-11-04T16:32:08.235Z,74.28
2022-11-04T16:34:37.260Z,74.39
2022-11-04T16:37:04.878Z,74.10
2022-11-04T16:39:33.229Z,74.30
2022-11-04T16:42:00.936Z,74.25
2022-11-04T16:44:28.743Z,74.48
2022-11-04T16:46:57.642Z,74.43
2022-11-04T16:49:25.312Z,74.40
2022-11-04T16:51:56.153Z,74.16
2022-11-04T16:54:24.603Z,74.27
2022-11-04T16:56:52.269Z,74.13
2022-11-04T16:59:19.907Z,74.42
2022-11-04T17:01:47.691Z,74.13
2022-11-04T17:04:15.494Z,74.18
2022-11-04T17:06:46.103Z,74.09
2022-11-04T17:11:22.202Z,74.55
2022-11-04T17:17:43.133Z,75.15
2022-11-04T17:20:13.101Z,75.16
2022-11-04T17:23:46.416Z,75.50
2022-11-04T17:26:14.173Z,75.84
2022-11-04T17:28:42.045Z,75.96
2022-11-04T17:31:11.710Z,75.92
2022-11-04T17:33:39.296Z,76.02
2022-11-04T17:36:07.963Z,75.94
2022-11-04T17:38:35.725Z,76.63
2022-11-04T17:41:22.039Z,76.49
2022-11-04T17:44:01.657Z,76.68
2022-11-04T17:46:35.091Z,76.83
2022-11-04T17:49:03.575Z,76.69
2022-11-04T17:51:31.766Z,77.04
2022-11-04T17:53:59.377Z,76.78
2022-11-04T17:56:28.505Z,76.73
2022-11-04T17:58:56.112Z,76.53
2022-11-04T18:01:24.711Z,76.67
2022-11-04T18:03:53.491Z,77.04
2022-11-04T18:06:21.427Z,77.31
2022-11-04T18:08:49.424Z,76.82
2022-11-04T18:11:31.156Z,76.95
2022-11-04T18:14:00.170Z,77.27
2022-11-04T18:16:27.774Z,76.99
2022-11-04T18:18:55.386Z,77.04
2022-11-04T18:21:22.973Z,76.92
2022-11-04T18:23:50.568Z,76.98
2022-11-04T18:26:18.891Z,77.00
2022-11-04T18:28:46.649Z,77.23
2022-11-04T18:31:21.531Z,77.53
2022-11-04T18:33:49.161Z,77.29
2022-11-04T18:36:16.787Z,77.58
2022-11-04T18:40:41.792Z,76.36
2022-11-04T18:43:09.717Z,76.20
2022-11-04T18:45:37.493Z,75.89
2022-11-04T18:48:05.955Z,75.49
2022-11-04T18:50:34.302Z,75.52
2022-11-04T18:53:01.908Z,75.43
2022-11-04T18:55:29.574Z,75.44
2022-11-04T18:57:58.632Z,75.00
2022-11-04T19:00:26.592Z,74.86
2022-11-04T19:02:54.199Z,75.06
2022-11-04T19:05:21.826Z,75.01
2022-11-04T19:07:49.513Z,74.92
2022-11-04T19:10:17.176Z,75.12
2022-11-04T19:13:07.749Z,75.39
2022-11-04T19:15:36.775Z,74.97
2022-11-04T19:18:04.497Z,74.85
2022-11-04T19:20:32.208Z,75.17
2022-11-04T19:22:59.907Z,75.20
2022-11-04T19:25:27.628Z,75.22
2022-11-04T19:28:18.746Z,75.37
2022-11-04T19:30:45.486Z,75.02
2022-11-04T19:33:13.090Z,75.77
2022-11-04T19:35:41.430Z,75.74
2022-11-04T19:38:09.479Z,75.46
2022-11-04T19:40:37.293Z,75.39
2022-11-04T19:43:09.771Z,75.57
2022-11-04T19:45:40.339Z,75.13
2022-11-04T19:48:10.030Z,74.95
2022-11-04T19:50:41.922Z,75.18
2022-11-04T19:53:09.631Z,74.93
2022-11-04T19:55:37.656Z,74.99
2022-11-04T19:58:05.312Z,75.00
2022-11-04T20:00:33.879Z,74.78
2022-11-04T20:03:01.492Z,75.00
2022-11-04T20:05:30.523Z,74.79
2022-11-04T20:08:03.157Z,74.90
2022-11-04T20:10:36.126Z,74.47
2022-11-04T20:13:21.426Z,74.84
2022-11-04T20:15:49.022Z,74.44
2022-11-04T20:18:16.617Z,74.92
2022-11-04T20:20:45.631Z,75.04
2022-11-04T20:23:13.246Z,74.89
2022-11-04T20:25:40.889Z,74.98
2022-11-04T20:28:08.808Z,74.84
2022-11-04T20:30:37.575Z,74.64
2022-11-04T20:33:05.735Z,74.73
2022-11-04T20:37:50.444Z,74.64
2022-11-04T20:40:18.150Z,74.69
2022-11-04T20:42:48.651Z,74.87
2022-11-04T20:45:16.612Z,74.72
2022-11-04T20:47:44.421Z,74.52
2022-11-04T20:50:12.186Z,74.59
2022-11-04T20:52:39.984Z,74.41
2022-11-04T20:58:02.271Z,74.96
2022-11-04T21:00:30.215Z,74.58
2022-11-04T21:02:57.949Z,74.43
2022-11-04T21:09:21.801Z,74.21
2022-11-04T21:11:50.150Z,73.55
2022-11-04T21:14:19.506Z,73.67
2022-11-04T21:16:47.810Z,73.46
2022-11-04T21:19:15.866Z,73.28
2022-11-04T21:21:43.806Z,73.47
2022-11-04T21:24:14.002Z,73.15
2022-11-04T21:26:43.524Z,73.20
2022-11-04T21:29:13.423Z,73.07
2022-11-04T21:31:41.160Z,73.29
2022-11-04T21:34:08.867Z,73.13
2022-11-04T21:36:36.665Z,73.51
2022-11-04T21:39:04.824Z,73.55
2022-11-04T21:41:37.032Z,73.12
2022-11-04T21:44:08.321Z,73.31
2022-11-04T21:46:36.843Z,73.48
2022-11-04T21:49:04.820Z,73.54
2022-11-04T21:51:34.492Z,73.33
2022-11-04T21:54:02.147Z,73.67
2022-11-04T21:56:32.897Z,73.23
2022-11-04T21:59:00.659Z,73.36
2022-11-04T22:01:31.146Z,73.73
2022-11-04T22:04:00.731Z,73.92
2022-11-04T22:06:34.197Z,73.97
2022-11-04T22:09:04.145Z,74.03
2022-11-04T22:11:33.402Z,74.00
2022-11-04T22:14:03.742Z,73.69
2022-11-04T22:16:35.034Z,73.83
2022-11-04T22:19:04.691Z,73.89
2022-11-04T22:21:33.037Z,73.91
2022-11-04T22:24:01.179Z,74.28
2022-11-04T22:26:30.172Z,74.15
2022-11-04T22:30:46.119Z,74.12
2022-11-04T22:34:47.481Z,73.93
2022-11-04T22:37:15.065Z,73.68
2022-11-04T22:39:42.670Z,73.67
2022-11-04T22:42:10.875Z,73.42
2022-11-04T22:44:38.537Z,73.31
2022-11-04T22:47:06.211Z,73.53
2022-11-04T22:49:33.887Z,73.28
2022-11-04T22:52:03.104Z,73.17
2022-11-04T22:54:30.722Z,73.04
2022-11-04T22:56:58.530Z,73.06
2022-11-04T22:59:26.198Z,73.56
2022-11-04T23:01:53.937Z,73.03
2022-11-04T23:04:21.693Z,73.10
2022-11-04T23:06:49.315Z,73.10
2022-11-04T23:09:18.471Z,72.72
2022-11-04T23:12:11.840Z,73.17
2022-11-04T23:14:57.020Z,73.37
2022-11-04T23:17:42.179Z,73.16
2022-11-04T23:20:11.869Z,73.43
2022-11-04T23:22:57.540Z,73.45
2022-11-04T23:25:27.146Z,73.33
2022-11-04T23:28:13.137Z,73.70
2022-11-04T23:30:43.525Z,73.76
2022-11-04T23:33:13.377Z,73.78
2022-11-04T23:36:00.162Z,73.71
2022-11-04T23:38:29.298Z,73.95
2022-11-04T23:41:17.632Z,73.81
2022-11-04T23:43:45.600Z,74.12
2022-11-04T23:46:30.567Z,74.17
2022-11-04T23:49:20.862Z,73.83
2022-11-04T23:52:06.060Z,73.62
2022-11-04T23:54:51.335Z,73.50
2022-11-04T23:57:37.742Z,73.45
